^^
Grace C. Lehan Memorial Weather Station Historical Data
Daily Summary for June 6, 2021 Units:  Both    English   Metric
Daily Weekly Monthly Yearly
  High: Low: Average:
Temperature: 83.9 °F /  28.8 °C 63.3 °F /  17.4 °C 73.1 °F /  22.8 °C
Dew Point: 71.4 °F /  21.9 °C 57.7 °F /  14.3 °C 64.3 °F /  17.9 °C
Humidity: 97% 46.1% 77%
Wind Speed: 4.7mph /  7.6km/h - 0.7mph /  1.1km/h
Wind Gust: 17mph /  27.4km/h - -
Wind- - WSW
Pressure: 29.85 in /  1010.7 hPa 29.68 in /  1005 hPa -
Precipitation: 0.01 in /  0.25 mm    
 
 
Tabular Data for June 6, 2021
Time Temperature Dew Point Pressure Wind Wind Speed Wind Gust Humidity Rainfall Rate (Hourly) solar
00:00 68.2 °F /  20.1 °C 67 °F /  19.4 °C 29.74in /  1007hPa Calm     96% 0.00in /  0mm 0 W/m2
00:09 68.3 °F /  20.2 °C 67.1 °F /  19.5 °C 29.75in /  1007.3hPa Calm     96% 0.00in /  0mm 0 W/m2
00:14 68.3 °F /  20.2 °C 67.1 °F /  19.5 °C 29.75in /  1007.3hPa Calm     96% 0.00in /  0mm 0 W/m2
00:19 68.4 °F /  20.2 °C 67.2 °F /  19.6 °C 29.75in /  1007.3hPa Calm     96% 0.00in /  0mm 0 W/m2
00:24 68.4 °F /  20.2 °C 67.2 °F /  19.6 °C 29.75in /  1007.3hPa Calm     96% 0.00in /  0mm 0 W/m2
00:29 68.4 °F /  20.2 °C 67.2 °F /  19.6 °C 29.75in /  1007.3hPa Calm     96% 0.00in /  0mm 0 W/m2
00:34 68.4 °F /  20.2 °C 67.2 °F /  19.6 °C 29.75in /  1007.3hPa Calm     96% 0.00in /  0mm 0 W/m2
00:39 68.4 °F /  20.2 °C 67.2 °F /  19.6 °C 29.74in /  1007hPa Calm     96% 0.00in /  0mm 0 W/m2
00:44 68.3 °F /  20.2 °C 67.1 °F /  19.5 °C 29.75in /  1007.3hPa Calm     96% 0.00in /  0mm 0 W/m2
00:49 68.3 °F /  20.2 °C 67.1 °F /  19.5 °C 29.75in /  1007.3hPa Calm     96% 0.00in /  0mm 0 W/m2
00:54 68.3 °F /  20.2 °C 67.4 °F /  19.7 °C 29.75in /  1007.3hPa Calm     96.8% 0.00in /  0mm 0 W/m2
00:59 68.3 °F /  20.2 °C 67.4 °F /  19.7 °C 29.75in /  1007.3hPa Calm     97% 0.00in /  0mm 0 W/m2
01:04 68.3 °F /  20.2 °C 67.5 °F /  19.7 °C 29.75in /  1007.3hPa Calm     97% 0.00in /  0mm 0 W/m2
01:09 68.4 °F /  20.2 °C 67.5 °F /  19.7 °C 29.74in /  1007hPa Calm     97% 0.00in /  0mm 0 W/m2
01:14 68.4 °F /  20.2 °C 67.5 °F /  19.7 °C 29.74in /  1007hPa Calm     97% 0.00in /  0mm 0 W/m2
01:19 68.4 °F /  20.2 °C 67.5 °F /  19.7 °C 29.74in /  1007hPa Calm     97% 0.00in /  0mm 0 W/m2
01:24 68.3 °F /  20.2 °C 67.4 °F /  19.7 °C 29.74in /  1007hPa Calm     97% 0.00in /  0mm 0 W/m2
01:29 68.3 °F /  20.2 °C 67.3 °F /  19.6 °C 29.74in /  1007hPa Calm     96.5% 0.00in /  0mm 0 W/m2
01:34 68.3 °F /  20.2 °C 67.1 °F /  19.5 °C 29.74in /  1007hPa Calm     96% 0.00in /  0mm 0 W/m2
01:39 68.3 °F /  20.2 °C 67.1 °F /  19.5 °C 29.74in /  1007hPa Calm     96% 0.00in /  0mm 0 W/m2
01:44 68.2 °F /  20.1 °C 67 °F /  19.4 °C 29.74in /  1007hPa Calm     96% 0.00in /  0mm 0 W/m2
01:49 68.2 °F /  20.1 °C 67 °F /  19.4 °C 29.74in /  1007hPa Calm     96% 0.00in /  0mm 0 W/m2
01:54 68.2 °F /  20.1 °C 67 °F /  19.4 °C 29.74in /  1007hPa Calm     96% 0.00in /  0mm 0 W/m2
01:59 68.2 °F /  20.1 °C 67 °F /  19.4 °C 29.74in /  1007hPa Calm     96% 0.00in /  0mm 0 W/m2
02:04 68.1 °F /  20.1 °C 66.9 °F /  19.4 °C 29.74in /  1007hPa Calm     96% 0.00in /  0mm 0 W/m2
02:09 68.1 °F /  20.1 °C 66.9 °F /  19.4 °C 29.74in /  1007hPa Calm     96% 0.00in /  0mm 0 W/m2
02:14 68.1 °F /  20.1 °C 66.9 °F /  19.4 °C 29.74in /  1007hPa Calm     96% 0.00in /  0mm 0 W/m2
02:19 68.1 °F /  20.1 °C 66.9 °F /  19.4 °C 29.74in /  1007hPa Calm     96% 0.00in /  0mm 0 W/m2
02:24 68.1 °F /  20.1 °C 66.9 °F /  19.4 °C 29.74in /  1007hPa Calm     96% 0.00in /  0mm 0 W/m2
02:29 68.1 °F /  20.1 °C 66.9 °F /  19.4 °C 29.74in /  1007hPa Calm     96% 0.00in /  0mm 0 W/m2
02:34 68 °F /  20 °C 66.8 °F /  19.3 °C 29.74in /  1007hPa Calm     96% 0.00in /  0mm 0 W/m2
02:39 67.9 °F /  19.9 °C 66.9 °F /  19.4 °C 29.73in /  1006.7hPa Calm     96.4% 0.00in /  0mm 0 W/m2
02:44 67.9 °F /  19.9 °C 67 °F /  19.4 °C 29.74in /  1007hPa Calm     97% 0.00in /  0mm 0 W/m2
02:49 67.8 °F /  19.9 °C 66.9 °F /  19.4 °C 29.74in /  1007hPa Calm     97% 0.00in /  0mm 0 W/m2
02:54 67.8 °F /  19.9 °C 66.9 °F /  19.4 °C 29.73in /  1006.7hPa Calm     97% 0.00in /  0mm 0 W/m2
02:59 67.7 °F /  19.8 °C 66.9 °F /  19.4 °C 29.74in /  1007hPa Calm     97% 0.00in /  0mm 0 W/m2
03:04 67.7 °F /  19.8 °C 66.8 °F /  19.3 °C 29.74in /  1007hPa Calm     97% 0.00in /  0mm 0 W/m2
03:09 67.7 °F /  19.8 °C 66.8 °F /  19.3 °C 29.74in /  1007hPa Calm     97% 0.00in /  0mm 0 W/m2
03:14 67.7 °F /  19.8 °C 66.7 °F /  19.3 °C 29.73in /  1006.7hPa Calm     96.6% 0.00in /  0mm 0 W/m2
03:19 67.6 °F /  19.8 °C 66.4 °F /  19.1 °C 29.74in /  1007hPa Calm     96% 0.00in /  0mm 0 W/m2
03:24 67.6 °F /  19.8 °C 66.4 °F /  19.1 °C 29.73in /  1006.7hPa Calm     96% 0.00in /  0mm 0 W/m2
03:29 67.6 °F /  19.8 °C 66.4 °F /  19.1 °C 29.73in /  1006.7hPa Calm     96% 0.00in /  0mm 0 W/m2
03:34 67.6 °F /  19.8 °C 66.4 °F /  19.1 °C 29.73in /  1006.7hPa Calm     96% 0.00in /  0mm 0 W/m2
03:39 67.6 °F /  19.8 °C 66.4 °F /  19.1 °C 29.73in /  1006.7hPa Calm     96% 0.00in /  0mm 0 W/m2
03:44 67.6 °F /  19.8 °C 66.7 °F /  19.3 °C 29.73in /  1006.7hPa Calm     96.8% 0.00in /  0mm 0 W/m2
03:49 67.6 °F /  19.8 °C 66.7 °F /  19.3 °C 29.73in /  1006.7hPa Calm     97% 0.00in /  0mm 0 W/m2
03:54 67.6 °F /  19.8 °C 66.7 °F /  19.3 °C 29.73in /  1006.7hPa Calm     97% 0.00in /  0mm 0 W/m2
03:59 67.6 °F /  19.8 °C 66.7 °F /  19.3 °C 29.73in /  1006.7hPa Calm     97% 0.00in /  0mm 0 W/m2
04:00 67.6 °F /  19.8 °C 66.7 °F /  19.3 °C 29.73in /  1006.7hPa Calm     97% 0.00in /  0mm 0 W/m2
04:09 67.6 °F /  19.8 °C 66.7 °F /  19.3 °C 29.73in /  1006.7hPa Calm     97% 0.00in /  0mm 0 W/m2
04:14 67.6 °F /  19.8 °C 66.7 °F /  19.3 °C 29.73in /  1006.7hPa Calm     97% 0.00in /  0mm 0 W/m2
04:19 67.6 °F /  19.8 °C 66.7 °F /  19.3 °C 29.73in /  1006.7hPa Calm     97% 0.00in /  0mm 0 W/m2
04:24 67.6 °F /  19.8 °C 66.7 °F /  19.3 °C 29.73in /  1006.7hPa Calm     97% 0.00in /  0mm 0 W/m2
04:29 67.5 °F /  19.7 °C 66.6 °F /  19.2 °C 29.73in /  1006.7hPa Calm     97% 0.00in /  0mm 0 W/m2
04:34 67.5 °F /  19.7 °C 66.7 °F /  19.3 °C 29.72in /  1006.3hPa Calm     97% 0.00in /  0mm 0 W/m2
04:39 67.5 °F /  19.7 °C 66.6 °F /  19.2 °C 29.72in /  1006.3hPa Calm     97% 0.00in /  0mm 0 W/m2
04:44 67.6 °F /  19.8 °C 66.7 °F /  19.3 °C 29.72in /  1006.3hPa Calm     97% 0.00in /  0mm 0 W/m2
04:49 67.5 °F /  19.7 °C 66.6 °F /  19.2 °C 29.71in /  1006hPa Calm     97% 0.00in /  0mm 0 W/m2
04:54 67.5 °F /  19.7 °C 66.6 °F /  19.2 °C 29.72in /  1006.3hPa Calm     97% 0.00in /  0mm 0 W/m2
04:59 67.5 °F /  19.7 °C 66.6 °F /  19.2 °C 29.72in /  1006.3hPa Calm     97% 0.01in /  0.25mm 0 W/m2
05:04 67.5 °F /  19.7 °C 66.6 °F /  19.2 °C 29.72in /  1006.3hPa Calm     97% 0.01in /  0.25mm 0 W/m2
05:09 67.5 °F /  19.7 °C 66.6 °F /  19.2 °C 29.72in /  1006.3hPa Calm     97% 0.01in /  0.25mm 0 W/m2
05:14 67.4 °F /  19.7 °C 66.6 °F /  19.2 °C 29.71in /  1006hPa Calm     97% 0.01in /  0.25mm 0 W/m2
05:19 67.5 °F /  19.7 °C 66.6 °F /  19.2 °C 29.72in /  1006.3hPa Calm     97% 0.01in /  0.25mm 0 W/m2
05:24 67.4 °F /  19.7 °C 66.6 °F /  19.2 °C 29.72in /  1006.3hPa Calm     97% 0.01in /  0.25mm 0 W/m2
05:29 67.4 °F /  19.7 °C 66.5 °F /  19.2 °C 29.72in /  1006.3hPa Calm     97% 0.01in /  0.25mm 0 W/m2
05:34 67.4 °F /  19.7 °C 66.5 °F /  19.2 °C 29.72in /  1006.3hPa Calm     97% 0.01in /  0.25mm 0 W/m2
05:39 67.4 °F /  19.7 °C 66.5 °F /  19.2 °C 29.73in /  1006.7hPa Calm     97% 0.01in /  0.25mm 0 W/m2
05:44 67.3 °F /  19.6 °C 66.4 °F /  19.1 °C 29.73in /  1006.7hPa Calm     97% 0.01in /  0.25mm 0 W/m2
05:49 67.2 °F /  19.6 °C 66.4 °F /  19.1 °C 29.73in /  1006.7hPa Calm     97% 0.01in /  0.25mm 0 W/m2
05:54 67.2 °F /  19.6 °C 66.3 °F /  19.1 °C 29.73in /  1006.7hPa Calm     97% 0.01in /  0.25mm 0 W/m2
05:59 67.1 °F /  19.5 °C 66.2 °F /  19 °C 29.73in /  1006.7hPa Calm     97% 0.01in /  0.25mm 0 W/m2
06:04 67 °F /  19.4 °C 66.1 °F /  18.9 °C 29.72in /  1006.3hPa Calm     97% 0.01in /  0.25mm 0 W/m2
06:09 66.9 °F /  19.4 °C 66 °F /  18.9 °C 29.72in /  1006.3hPa Calm     97% 0.00in /  0mm 0 W/m2
06:14 66.7 °F /  19.3 °C 65.6 °F /  18.7 °C 29.73in /  1006.7hPa Calm     96.1% 0.00in /  0mm 0 W/m2
06:19 66.6 °F /  19.2 °C 65.7 °F /  18.7 °C 29.74in /  1007hPa Calm     96.9% 0.00in /  0mm 0 W/m2
06:24 66.5 °F /  19.2 °C 65.7 °F /  18.7 °C 29.74in /  1007hPa Calm     97% 0.00in /  0mm 0 W/m2
06:29 66.4 °F /  19.1 °C 65.6 °F /  18.7 °C 29.74in /  1007hPa Calm     97% 0.00in /  0mm 0 W/m2
06:34 66.3 °F /  19.1 °C 65.3 °F /  18.5 °C 29.74in /  1007hPa Calm     96.5% 0.00in /  0mm 0 W/m2
06:39 66.2 °F /  19 °C 65 °F /  18.3 °C 29.74in /  1007hPa Calm     96% 0.00in /  0mm 0 W/m2
06:44 66.1 °F /  18.9 °C 64.9 °F /  18.3 °C 29.74in /  1007hPa Calm     96% 0.00in /  0mm 7 W/m2
06:49 66 °F /  18.9 °C 64.9 °F /  18.3 °C 29.74in /  1007hPa Calm     96% 0.00in /  0mm 11 W/m2
06:54 65.9 °F /  18.8 °C 65.1 °F /  18.4 °C 29.74in /  1007hPa Calm     97% 0.00in /  0mm 14 W/m2
06:59 65.9 °F /  18.8 °C 65 °F /  18.3 °C 29.74in /  1007hPa Calm     97% 0.00in /  0mm 26 W/m2
07:04 66.1 °F /  18.9 °C 65.2 °F /  18.4 °C 29.74in /  1007hPa Calm     97% 0.00in /  0mm 26 W/m2
07:09 66.2 °F /  19 °C 65.3 °F /  18.5 °C 29.75in /  1007.3hPa Calm     97% 0.00in /  0mm 33 W/m2
07:14 66.3 °F /  19.1 °C 65.4 °F /  18.6 °C 29.74in /  1007hPa Calm     97% 0.00in /  0mm 35 W/m2
07:19 66.4 °F /  19.1 °C 65.6 °F /  18.7 °C 29.74in /  1007hPa Calm     97% 0.00in /  0mm 40 W/m2
07:24 66.6 °F /  19.2 °C 65.7 °F /  18.7 °C 29.74in /  1007hPa Calm     97% 0.00in /  0mm 49 W/m2
07:29 66.8 °F /  19.3 °C 65.9 °F /  18.8 °C 29.74in /  1007hPa Calm     97% 0.00in /  0mm 54 W/m2
07:34 67 °F /  19.4 °C 66.1 °F /  18.9 °C 29.74in /  1007hPa Calm     97% 0.00in /  0mm 65 W/m2
07:39 67.2 °F /  19.6 °C 66.3 °F /  19.1 °C 29.74in /  1007hPa Calm     97% 0.00in /  0mm 79 W/m2
07:44 67.6 °F /  19.8 °C 66.7 °F /  19.3 °C 29.74in /  1007hPa Calm     97% 0.00in /  0mm 86 W/m2
07:49 68.1 °F /  20.1 °C 67.2 °F /  19.6 °C 29.75in /  1007.3hPa Calm     97% 0.00in /  0mm 86 W/m2
07:54 68.5 °F /  20.3 °C 67.7 °F /  19.8 °C 29.75in /  1007.3hPa Calm     97% 0.00in /  0mm 74 W/m2
07:59 68.7 °F /  20.4 °C 67.8 °F /  19.9 °C 29.75in /  1007.3hPa Calm     97% 0.00in /  0mm 97 W/m2
08:09 69 °F /  20.6 °C 68.1 °F /  20.1 °C 29.75in /  1007.3hPa WSW 0.2mph /  0.3km/h 5mph /  8km/h 97% 0.00in /  0mm 123 W/m2
08:14 69 °F /  20.6 °C 68.1 °F /  20.1 °C 29.75in /  1007.3hPa WSW 0.3mph /  0.5km/h 5mph /  8km/h 97% 0.00in /  0mm 120 W/m2
08:19 68.9 °F /  20.5 °C 68 °F /  20 °C 29.75in /  1007.3hPa WSW 0.2mph /  0.3km/h 5mph /  8km/h 97% 0.00in /  0mm 137 W/m2
08:24 68.9 °F /  20.5 °C 68 °F /  20 °C 29.75in /  1007.3hPa West 0.1mph /  0.2km/h 5mph /  8km/h 97% 0.00in /  0mm 202 W/m2
08:29 69 °F /  20.6 °C 68.1 °F /  20.1 °C 29.75in /  1007.3hPa Calm   5mph /  8km/h 97% 0.00in /  0mm 343 W/m2
08:34 69 °F /  20.6 °C 68.1 °F /  20.1 °C 29.75in /  1007.3hPa Calm   5mph /  8km/h 97% 0.00in /  0mm 359 W/m2
08:39 69.2 °F /  20.7 °C 68.3 °F /  20.2 °C 29.75in /  1007.3hPa Calm   1mph /  1.6km/h 97% 0.00in /  0mm 388 W/m2
08:44 69.4 °F /  20.8 °C 68.5 °F /  20.3 °C 29.75in /  1007.3hPa WSW 1.5mph /  2.4km/h 7mph /  11.3km/h 97% 0.00in /  0mm 434 W/m2
08:49 69.7 °F /  20.9 °C 68.8 °F /  20.4 °C 29.75in /  1007.3hPa WSW 0.5mph /  0.8km/h 7mph /  11.3km/h 97% 0.00in /  0mm 441 W/m2
08:54 70.2 °F /  21.2 °C 69.3 °F /  20.7 °C 29.75in /  1007.3hPa West 0.2mph /  0.3km/h 7mph /  11.3km/h 97% 0.00in /  0mm 490 W/m2
08:59 70.7 °F /  21.5 °C 69.8 °F /  21 °C 29.75in /  1007.3hPa West 1mph /  1.6km/h 7mph /  11.3km/h 97% 0.00in /  0mm 490 W/m2
09:04 71.2 °F /  21.8 °C 70 °F /  21.1 °C 29.75in /  1007.3hPa Calm   7mph /  11.3km/h 96.1% 0.00in /  0mm 547 W/m2
09:09 71.9 °F /  22.2 °C 70.6 °F /  21.4 °C 29.75in /  1007.3hPa WSW 0.1mph /  0.2km/h 3mph /  4.8km/h 95.6% 0.00in /  0mm 547 W/m2
09:14 72.7 °F /  22.6 °C 71.1 °F /  21.7 °C 29.76in /  1007.7hPa Calm   3mph /  4.8km/h 94.6% 0.00in /  0mm 538 W/m2
09:19 73.5 °F /  23.1 °C 71.4 °F /  21.9 °C 29.75in /  1007.3hPa WSW 0.2mph /  0.3km/h 3mph /  4.8km/h 92.9% 0.00in /  0mm 538 W/m2
09:24 74.2 °F /  23.4 °C 71.1 °F /  21.7 °C 29.76in /  1007.7hPa WSW 0.6mph /  1km/h 4mph /  6.4km/h 90.1% 0.00in /  0mm 563 W/m2
09:29 74.7 °F /  23.7 °C 70.6 °F /  21.4 °C 29.75in /  1007.3hPa WSW 0.1mph /  0.2km/h 4mph /  6.4km/h 87.2% 0.00in /  0mm 557 W/m2
09:34 75 °F /  23.9 °C 70.4 °F /  21.3 °C 29.75in /  1007.3hPa Calm   4mph /  6.4km/h 85.7% 0.00in /  0mm 589 W/m2
09:39 75.3 °F /  24.1 °C 70.3 °F /  21.3 °C 29.76in /  1007.7hPa WSW 1.9mph /  3.1km/h 7mph /  11.3km/h 84.3% 0.00in /  0mm 596 W/m2
09:44 75.5 °F /  24.2 °C 69.6 °F /  20.9 °C 29.76in /  1007.7hPa WNW 1.6mph /  2.6km/h 7mph /  11.3km/h 82% 0.00in /  0mm 606 W/m2
09:49 75.8 °F /  24.3 °C 69.9 °F /  21.1 °C 29.76in /  1007.7hPa WNW 0.3mph /  0.5km/h 7mph /  11.3km/h 82% 0.00in /  0mm 621 W/m2
09:54 76.3 °F /  24.6 °C 70 °F /  21.1 °C 29.77in /  1008hPa West 2.4mph /  3.9km/h 9mph /  14.5km/h 80.9% 0.00in /  0mm 724 W/m2
09:59 76.8 °F /  24.9 °C 69.5 °F /  20.8 °C 29.77in /  1008hPa WNW 0.7mph /  1.1km/h 9mph /  14.5km/h 78.4% 0.00in /  0mm 803 W/m2
10:04 77.2 °F /  25.1 °C 69.4 °F /  20.8 °C 29.77in /  1008hPa Calm   9mph /  14.5km/h 77% 0.00in /  0mm 793 W/m2
10:09 77.2 °F /  25.1 °C 69.4 °F /  20.8 °C 29.77in /  1008hPa WNW 0.5mph /  0.8km/h 5mph /  8km/h 77.1% 0.00in /  0mm 807 W/m2
10:14 77.2 °F /  25.1 °C 69.5 °F /  20.8 °C 29.76in /  1007.7hPa WNW 0.6mph /  1km/h 5mph /  8km/h 77.1% 0.00in /  0mm 807 W/m2
10:19 77.5 °F /  25.3 °C 69.8 °F /  21 °C 29.76in /  1007.7hPa WNW 0.9mph /  1.4km/h 5mph /  8km/h 77.3% 0.00in /  0mm 761 W/m2
10:24 77.7 °F /  25.4 °C 69.6 °F /  20.9 °C 29.76in /  1007.7hPa WNW 0.4mph /  0.6km/h 5mph /  8km/h 76.2% 0.00in /  0mm 715 W/m2
10:29 78.2 °F /  25.7 °C 70.8 °F /  21.6 °C 29.76in /  1007.7hPa Calm   5mph /  8km/h 78.1% 0.00in /  0mm 729 W/m2
10:34 78.7 °F /  25.9 °C 70.6 °F /  21.4 °C 29.76in /  1007.7hPa Calm   5mph /  8km/h 76.1% 0.00in /  0mm 766 W/m2
10:39 79.1 °F /  26.2 °C 70.6 °F /  21.4 °C 29.76in /  1007.7hPa WNW 0.1mph /  0.2km/h 2mph /  3.2km/h 75.2% 0.00in /  0mm 752 W/m2
10:44 79.4 °F /  26.3 °C 70.5 °F /  21.4 °C 29.76in /  1007.7hPa WNW 0.4mph /  0.6km/h 3mph /  4.8km/h 74.1% 0.00in /  0mm 758 W/m2
10:49 79.8 °F /  26.6 °C 70.6 °F /  21.4 °C 29.76in /  1007.7hPa WNW 0.2mph /  0.3km/h 3mph /  4.8km/h 73.6% 0.00in /  0mm 758 W/m2
10:54 79.8 °F /  26.6 °C 69.6 °F /  20.9 °C 29.76in /  1007.7hPa Calm   3mph /  4.8km/h 71% 0.00in /  0mm 759 W/m2
10:59 79.8 °F /  26.6 °C 69.6 °F /  20.9 °C 29.75in /  1007.3hPa Calm   3mph /  4.8km/h 71.1% 0.00in /  0mm 758 W/m2
11:04 80.1 °F /  26.7 °C 69.6 °F /  20.9 °C 29.75in /  1007.3hPa WNW 0.2mph /  0.3km/h 4mph /  6.4km/h 70.3% 0.00in /  0mm 772 W/m2
11:09 80.5 °F /  26.9 °C 70.3 °F /  21.3 °C 29.75in /  1007.3hPa West 0.5mph /  0.8km/h 5mph /  8km/h 71.2% 0.00in /  0mm 784 W/m2
11:14 81 °F /  27.2 °C 70 °F /  21.1 °C 29.75in /  1007.3hPa WSW 0.5mph /  0.8km/h 5mph /  8km/h 69.3% 0.00in /  0mm 788 W/m2
11:19 81.3 °F /  27.4 °C 69.6 °F /  20.9 °C 29.75in /  1007.3hPa WNW 1.1mph /  1.8km/h 7mph /  11.3km/h 67.7% 0.00in /  0mm 800 W/m2
11:24 81.6 °F /  27.6 °C 70.5 °F /  21.4 °C 29.75in /  1007.3hPa WNW 0.2mph /  0.3km/h 7mph /  11.3km/h 69.1% 0.00in /  0mm 810 W/m2
11:29 82.1 °F /  27.8 °C 69.8 °F /  21 °C 29.75in /  1007.3hPa West 1mph /  1.6km/h 7mph /  11.3km/h 66.4% 0.00in /  0mm 817 W/m2
11:34 82.5 °F /  28.1 °C 69.4 °F /  20.8 °C 29.75in /  1007.3hPa West 0.4mph /  0.6km/h 7mph /  11.3km/h 64.6% 0.00in /  0mm 819 W/m2
11:39 83 °F /  28.3 °C 69.3 °F /  20.7 °C 29.75in /  1007.3hPa West 1.3mph /  2.1km/h 6mph /  9.7km/h 63.5% 0.00in /  0mm 830 W/m2
11:44 83.1 °F /  28.4 °C 69.4 °F /  20.8 °C 29.75in /  1007.3hPa WSW 1mph /  1.6km/h 8mph /  12.9km/h 63.5% 0.00in /  0mm 846 W/m2
11:49 83 °F /  28.3 °C 68.5 °F /  20.3 °C 29.75in /  1007.3hPa WSW 1.3mph /  2.1km/h 8mph /  12.9km/h 61.5% 0.00in /  0mm 853 W/m2
11:54 82.8 °F /  28.2 °C 68.4 °F /  20.2 °C 29.75in /  1007.3hPa WSW 0.5mph /  0.8km/h 8mph /  12.9km/h 61.9% 0.00in /  0mm 763 W/m2
11:59 82.4 °F /  28 °C 68.4 °F /  20.2 °C 29.75in /  1007.3hPa WSW 3.2mph /  5.1km/h 8mph /  12.9km/h 62.6% 0.00in /  0mm 763 W/m2
12:00 82.2 °F /  27.9 °C 67.9 °F /  19.9 °C 29.75in /  1007.3hPa Calm   8mph /  12.9km/h 62% 0.00in /  0mm 163 W/m2
12:09 81.2 °F /  27.3 °C 67.8 °F /  19.9 °C 29.74in /  1007hPa SW 0.8mph /  1.3km/h 7mph /  11.3km/h 63.8% 0.00in /  0mm 135 W/m2
12:14 80.6 °F /  27 °C 67.4 °F /  19.7 °C 29.74in /  1007hPa WSW 0.3mph /  0.5km/h 7mph /  11.3km/h 64.2% 0.00in /  0mm 109 W/m2
12:19 80.1 °F /  26.7 °C 66.8 °F /  19.3 °C 29.74in /  1007hPa WSW 0.1mph /  0.2km/h 7mph /  11.3km/h 63.9% 0.00in /  0mm 144 W/m2
12:24 79.8 °F /  26.6 °C 66.3 °F /  19.1 °C 29.74in /  1007hPa SW 1.3mph /  2.1km/h 7mph /  11.3km/h 63.5% 0.00in /  0mm 193 W/m2
12:29 79.7 °F /  26.5 °C 65.4 °F /  18.6 °C 29.74in /  1007hPa SW 0.4mph /  0.6km/h 7mph /  11.3km/h 61.8% 0.00in /  0mm 121 W/m2
12:34 79.7 °F /  26.5 °C 65.4 °F /  18.6 °C 29.74in /  1007hPa SW 1.3mph /  2.1km/h 10mph /  16.1km/h 61.6% 0.00in /  0mm 116 W/m2
12:39 79.8 °F /  26.6 °C 65.7 °F /  18.7 °C 29.74in /  1007hPa WSW 1mph /  1.6km/h 10mph /  16.1km/h 62% 0.00in /  0mm 135 W/m2
12:44 79.9 °F /  26.6 °C 65.4 °F /  18.6 °C 29.73in /  1006.7hPa SW 1mph /  1.6km/h 10mph /  16.1km/h 61.3% 0.00in /  0mm 272 W/m2
12:49 80 °F /  26.7 °C 65.1 °F /  18.4 °C 29.73in /  1006.7hPa SW 2mph /  3.2km/h 10mph /  16.1km/h 60.5% 0.00in /  0mm 251 W/m2
12:54 80.1 °F /  26.7 °C 64.9 °F /  18.3 °C 29.73in /  1006.7hPa SW 2.3mph /  3.7km/h 10mph /  16.1km/h 59.7% 0.00in /  0mm 381 W/m2
12:59 80.2 °F /  26.8 °C 64.1 °F /  17.8 °C 29.72in /  1006.3hPa SW 1.6mph /  2.6km/h 10mph /  16.1km/h 58.1% 0.00in /  0mm 700 W/m2
13:04 80.2 °F /  26.8 °C 64.7 °F /  18.2 °C 29.72in /  1006.3hPa SW 0.6mph /  1km/h 10mph /  16.1km/h 59.2% 0.00in /  0mm 700 W/m2
13:09 80.2 °F /  26.8 °C 65.5 °F /  18.6 °C 29.72in /  1006.3hPa SW 1.2mph /  1.9km/h 6mph /  9.7km/h 60.9% 0.00in /  0mm 84 W/m2
13:14 80.4 °F /  26.9 °C 65.3 °F /  18.5 °C 29.72in /  1006.3hPa SW 1mph /  1.6km/h 6mph /  9.7km/h 60.2% 0.00in /  0mm 95 W/m2
13:19 80.4 °F /  26.9 °C 64.9 °F /  18.3 °C 29.72in /  1006.3hPa Calm   6mph /  9.7km/h 59.1% 0.00in /  0mm 77 W/m2
13:24 80.6 °F /  27 °C 64.8 °F /  18.2 °C 29.72in /  1006.3hPa WSW 1.3mph /  2.1km/h 6mph /  9.7km/h 58.7% 0.00in /  0mm 72 W/m2
13:29 80.8 °F /  27.1 °C 63.4 °F /  17.4 °C 29.71in /  1006hPa SW 1.2mph /  1.9km/h 8mph /  12.9km/h 55.6% 0.00in /  0mm 146 W/m2
13:34 81 °F /  27.2 °C 63.5 °F /  17.5 °C 29.71in /  1006hPa WSW 1.1mph /  1.8km/h 8mph /  12.9km/h 55.4% 0.00in /  0mm 403 W/m2
13:39 81.2 °F /  27.3 °C 63.8 °F /  17.7 °C 29.71in /  1006hPa WSW 3mph /  4.8km/h 11mph /  17.7km/h 55.5% 0.00in /  0mm 325 W/m2
13:44 81.4 °F /  27.4 °C 62.9 °F /  17.2 °C 29.71in /  1006hPa WSW 2.3mph /  3.7km/h 11mph /  17.7km/h 53.5% 0.00in /  0mm 125 W/m2
13:49 81.4 °F /  27.4 °C 62.5 °F /  16.9 °C 29.71in /  1006hPa WSW 2.9mph /  4.7km/h 11mph /  17.7km/h 52.8% 0.00in /  0mm 158 W/m2
13:54 81.5 °F /  27.5 °C 62.6 °F /  17 °C 29.71in /  1006hPa WSW 2.6mph /  4.2km/h 11mph /  17.7km/h 52.7% 0.00in /  0mm 88 W/m2
13:59 81.5 °F /  27.5 °C 61.8 °F /  16.6 °C 29.71in /  1006hPa WSW 2.8mph /  4.5km/h 14mph /  22.5km/h 51.1% 0.00in /  0mm 357 W/m2
14:04 81.6 °F /  27.6 °C 62.5 °F /  16.9 °C 29.71in /  1006hPa WSW 1.9mph /  3.1km/h 14mph /  22.5km/h 52.3% 0.00in /  0mm 381 W/m2
14:09 81.6 °F /  27.6 °C 62 °F /  16.7 °C 29.71in /  1006hPa WSW 1.7mph /  2.7km/h 11mph /  17.7km/h 51.4% 0.00in /  0mm 411 W/m2
14:14 81.8 °F /  27.7 °C 62.7 °F /  17.1 °C 29.71in /  1006hPa WSW 3.8mph /  6.1km/h 11mph /  17.7km/h 52.4% 0.00in /  0mm 826 W/m2
14:19 82.2 °F /  27.9 °C 63.2 °F /  17.3 °C 29.70in /  1005.6hPa WSW 3.2mph /  5.1km/h 11mph /  17.7km/h 52.7% 0.00in /  0mm 844 W/m2
14:24 82.6 °F /  28.1 °C 62.8 °F /  17.1 °C 29.70in /  1005.6hPa SW 2.8mph /  4.5km/h 11mph /  17.7km/h 51.3% 0.00in /  0mm 821 W/m2
14:29 83 °F /  28.3 °C 63.1 °F /  17.3 °C 29.70in /  1005.6hPa WSW 1.9mph /  3.1km/h 11mph /  17.7km/h 51.1% 0.00in /  0mm 805 W/m2
14:34 83.4 °F /  28.6 °C 63.2 °F /  17.3 °C 29.70in /  1005.6hPa WSW 2.1mph /  3.4km/h 11mph /  17.7km/h 50.8% 0.00in /  0mm 814 W/m2
14:39 83.4 °F /  28.6 °C 63 °F /  17.2 °C 29.69in /  1005.3hPa SW 2.6mph /  4.2km/h 11mph /  17.7km/h 50.4% 0.00in /  0mm 812 W/m2
14:44 83.4 °F /  28.6 °C 63.1 °F /  17.3 °C 29.69in /  1005.3hPa West 3.7mph /  6km/h 11mph /  17.7km/h 50.5% 0.00in /  0mm 773 W/m2
14:49 83.6 °F /  28.7 °C 62.3 °F /  16.8 °C 29.69in /  1005.3hPa West 3.8mph /  6.1km/h 14mph /  22.5km/h 48.8% 0.00in /  0mm 765 W/m2
14:54 83.6 °F /  28.7 °C 62.9 °F /  17.2 °C 29.69in /  1005.3hPa WSW 3.1mph /  5km/h 14mph /  22.5km/h 49.9% 0.00in /  0mm 766 W/m2
14:59 83.6 °F /  28.7 °C 62.5 °F /  16.9 °C 29.69in /  1005.3hPa WSW 3.8mph /  6.1km/h 14mph /  22.5km/h 49% 0.00in /  0mm 761 W/m2
15:04 83.8 °F /  28.8 °C 62.4 °F /  16.9 °C 29.69in /  1005.3hPa SW 2.6mph /  4.2km/h 14mph /  22.5km/h 48.6% 0.00in /  0mm 754 W/m2
15:09 83.8 °F /  28.8 °C 62.6 °F /  17 °C 29.68in /  1005hPa WSW 3.9mph /  6.3km/h 11mph /  17.7km/h 49% 0.00in /  0mm 731 W/m2
15:14 83.9 °F /  28.8 °C 62.1 °F /  16.7 °C 29.68in /  1005hPa WSW 3.2mph /  5.1km/h 11mph /  17.7km/h 47.9% 0.00in /  0mm 719 W/m2
15:19 83.9 °F /  28.8 °C 61.7 °F /  16.5 °C 29.68in /  1005hPa WSW 3.8mph /  6.1km/h 11mph /  17.7km/h 47.3% 0.00in /  0mm 710 W/m2
15:24 83.8 °F /  28.8 °C 61.1 °F /  16.2 °C 29.68in /  1005hPa WSW 4.5mph /  7.2km/h 17mph /  27.4km/h 46.3% 0.00in /  0mm 696 W/m2
15:29 83.9 °F /  28.8 °C 61 °F /  16.1 °C 29.69in /  1005.3hPa WSW 3.7mph /  6km/h 17mph /  27.4km/h 46.1% 0.00in /  0mm 682 W/m2
15:34 83.8 °F /  28.8 °C 61.1 °F /  16.2 °C 29.69in /  1005.3hPa WSW 4mph /  6.4km/h 17mph /  27.4km/h 46.3% 0.00in /  0mm 668 W/m2
15:39 83.9 °F /  28.8 °C 61.7 °F /  16.5 °C 29.69in /  1005.3hPa WSW 4.7mph /  7.6km/h 13mph /  20.9km/h 47.2% 0.00in /  0mm 663 W/m2
15:44 83.9 °F /  28.8 °C 61.9 °F /  16.6 °C 29.69in /  1005.3hPa SW 1.8mph /  2.9km/h 13mph /  20.9km/h 47.6% 0.00in /  0mm 650 W/m2
15:49 83.9 °F /  28.8 °C 62.7 °F /  17.1 °C 29.69in /  1005.3hPa SW 1mph /  1.6km/h 13mph /  20.9km/h 49% 0.00in /  0mm 626 W/m2
15:54 83.9 °F /  28.8 °C 62.5 °F /  16.9 °C 29.69in /  1005.3hPa WSW 2.4mph /  3.9km/h 13mph /  20.9km/h 48.8% 0.00in /  0mm 638 W/m2
15:59 83.6 °F /  28.7 °C 61.5 °F /  16.4 °C 29.69in /  1005.3hPa WSW 4.3mph /  6.9km/h 14mph /  22.5km/h 47.4% 0.00in /  0mm 640 W/m2
16:00 83.4 °F /  28.6 °C 61.1 °F /  16.2 °C 29.69in /  1005.3hPa NW 1mph /  1.6km/h 14mph /  22.5km/h 47% 0.00in /  0mm 615 W/m2
16:09 82.9 °F /  28.3 °C 61.2 °F /  16.2 °C 29.69in /  1005.3hPa WSW 2.7mph /  4.3km/h 12mph /  19.3km/h 48% 0.00in /  0mm 42 W/m2
16:14 82.5 °F /  28.1 °C 60 °F /  15.6 °C 29.69in /  1005.3hPa WSW 3.6mph /  5.8km/h 12mph /  19.3km/h 46.6% 0.00in /  0mm 39 W/m2
16:19 82.2 °F /  27.9 °C 60.1 °F /  15.6 °C 29.69in /  1005.3hPa SW 2.3mph /  3.7km/h 12mph /  19.3km/h 47.2% 0.00in /  0mm 37 W/m2
16:24 81.9 °F /  27.7 °C 60.3 °F /  15.7 °C 29.69in /  1005.3hPa WSW 2.8mph /  4.5km/h 12mph /  19.3km/h 48% 0.00in /  0mm 35 W/m2
16:29 81.7 °F /  27.6 °C 60.7 °F /  15.9 °C 29.69in /  1005.3hPa WSW 2.5mph /  4km/h 12mph /  19.3km/h 49% 0.00in /  0mm 35 W/m2
16:34 81.6 °F /  27.6 °C 60.6 °F /  15.9 °C 29.70in /  1005.6hPa WSW 1.8mph /  2.9km/h 12mph /  19.3km/h 49.1% 0.00in /  0mm 35 W/m2
16:39 81.4 °F /  27.4 °C 60.3 °F /  15.7 °C 29.70in /  1005.6hPa WSW 2.1mph /  3.4km/h 11mph /  17.7km/h 48.7% 0.00in /  0mm 35 W/m2
16:44 81.4 °F /  27.4 °C 60.2 °F /  15.7 °C 29.70in /  1005.6hPa West 3.6mph /  5.8km/h 12mph /  19.3km/h 48.6% 0.00in /  0mm 33 W/m2
16:49 81.2 °F /  27.3 °C 60.2 °F /  15.7 °C 29.70in /  1005.6hPa WNW 1.3mph /  2.1km/h 12mph /  19.3km/h 49% 0.00in /  0mm 33 W/m2
16:54 81.1 °F /  27.3 °C 60.5 °F /  15.8 °C 29.70in /  1005.6hPa WSW 2.1mph /  3.4km/h 12mph /  19.3km/h 49.5% 0.00in /  0mm 39 W/m2
16:59 81.1 °F /  27.3 °C 60.6 °F /  15.9 °C 29.70in /  1005.6hPa WNW 2.3mph /  3.7km/h 12mph /  19.3km/h 49.8% 0.00in /  0mm 69 W/m2
17:04 81 °F /  27.2 °C 60.2 °F /  15.7 °C 29.70in /  1005.6hPa WSW 3.5mph /  5.6km/h 14mph /  22.5km/h 49.2% 0.00in /  0mm 93 W/m2
17:09 80.9 °F /  27.2 °C 60 °F /  15.6 °C 29.70in /  1005.6hPa WSW 2.2mph /  3.5km/h 14mph /  22.5km/h 49.1% 0.00in /  0mm 91 W/m2
17:14 80.7 °F /  27.1 °C 59.9 °F /  15.5 °C 29.70in /  1005.6hPa WSW 3.2mph /  5.1km/h 14mph /  22.5km/h 49.2% 0.00in /  0mm 91 W/m2
17:19 80.4 °F /  26.9 °C 59.5 °F /  15.3 °C 29.70in /  1005.6hPa West 2.9mph /  4.7km/h 14mph /  22.5km/h 49% 0.00in /  0mm 65 W/m2
17:24 80.1 °F /  26.7 °C 59.4 °F /  15.2 °C 29.70in /  1005.6hPa West 2.7mph /  4.3km/h 14mph /  22.5km/h 49.3% 0.00in /  0mm 42 W/m2
17:29 79.8 °F /  26.6 °C 60 °F /  15.6 °C 29.71in /  1006hPa WNW 1.6mph /  2.6km/h 14mph /  22.5km/h 50.9% 0.00in /  0mm 47 W/m2
17:34 79.6 °F /  26.4 °C 60.4 °F /  15.8 °C 29.71in /  1006hPa WNW 1.6mph /  2.6km/h 14mph /  22.5km/h 51.8% 0.00in /  0mm 47 W/m2
17:39 79.6 °F /  26.4 °C 60.5 °F /  15.8 °C 29.71in /  1006hPa West 1.6mph /  2.6km/h 7mph /  11.3km/h 52.1% 0.00in /  0mm 39 W/m2
17:44 79.5 °F /  26.4 °C 60.9 °F /  16.1 °C 29.71in /  1006hPa WSW 1.7mph /  2.7km/h 9mph /  14.5km/h 53% 0.00in /  0mm 30 W/m2
17:49 79.4 °F /  26.3 °C 60.1 °F /  15.6 °C 29.71in /  1006hPa West 3.1mph /  5km/h 10mph /  16.1km/h 51.7% 0.00in /  0mm 28 W/m2
17:54 79.2 °F /  26.2 °C 60.1 °F /  15.6 °C 29.71in /  1006hPa West 1.1mph /  1.8km/h 10mph /  16.1km/h 52% 0.00in /  0mm 26 W/m2
17:59 79.1 °F /  26.2 °C 60.5 °F /  15.8 °C 29.72in /  1006.3hPa West 0.8mph /  1.3km/h 10mph /  16.1km/h 53% 0.00in /  0mm 25 W/m2
18:04 78.9 °F /  26.1 °C 60.4 °F /  15.8 °C 29.72in /  1006.3hPa West 1.5mph /  2.4km/h 10mph /  16.1km/h 53% 0.00in /  0mm 23 W/m2
18:09 78.7 °F /  25.9 °C 60.7 °F /  15.9 °C 29.72in /  1006.3hPa WSW 0.4mph /  0.6km/h 9mph /  14.5km/h 54% 0.00in /  0mm 21 W/m2
18:14 78.6 °F /  25.9 °C 61 °F /  16.1 °C 29.72in /  1006.3hPa West 0.5mph /  0.8km/h 9mph /  14.5km/h 54.8% 0.00in /  0mm 21 W/m2
18:19 78.3 °F /  25.7 °C 60.6 °F /  15.9 °C 29.72in /  1006.3hPa WNW 2.4mph /  3.9km/h 9mph /  14.5km/h 54.5% 0.00in /  0mm 19 W/m2
18:24 78 °F /  25.6 °C 60.1 °F /  15.6 °C 29.73in /  1006.7hPa WNW 3.1mph /  5km/h 10mph /  16.1km/h 54.2% 0.00in /  0mm 19 W/m2
18:29 77.7 °F /  25.4 °C 60.6 °F /  15.9 °C 29.73in /  1006.7hPa WNW 0.6mph /  1km/h 10mph /  16.1km/h 55.8% 0.00in /  0mm 11 W/m2
18:34 77.4 °F /  25.2 °C 60.6 °F /  15.9 °C 29.73in /  1006.7hPa WNW 1mph /  1.6km/h 10mph /  16.1km/h 56.2% 0.00in /  0mm 14 W/m2
18:39 77 °F /  25 °C 60.6 °F /  15.9 °C 29.73in /  1006.7hPa WNW 0.6mph /  1km/h 4mph /  6.4km/h 57% 0.00in /  0mm 21 W/m2
18:44 76.7 °F /  24.8 °C 60.8 °F /  16 °C 29.74in /  1007hPa WNW 0.1mph /  0.2km/h 4mph /  6.4km/h 58% 0.00in /  0mm 23 W/m2
18:49 76.5 °F /  24.7 °C 61.1 °F /  16.2 °C 29.74in /  1007hPa Calm   4mph /  6.4km/h 59% 0.00in /  0mm 26 W/m2
18:54 76.3 °F /  24.6 °C 61.2 °F /  16.2 °C 29.74in /  1007hPa Calm   4mph /  6.4km/h 59.7% 0.00in /  0mm 16 W/m2
18:59 76.1 °F /  24.5 °C 61.2 °F /  16.2 °C 29.74in /  1007hPa Calm   4mph /  6.4km/h 60% 0.00in /  0mm 12 W/m2
19:04 75.9 °F /  24.4 °C 61 °F /  16.1 °C 29.74in /  1007hPa Calm   4mph /  6.4km/h 60% 0.00in /  0mm 7 W/m2
19:09 75.7 °F /  24.3 °C 60.8 °F /  16 °C 29.74in /  1007hPa Calm     60% 0.00in /  0mm 5 W/m2
19:14 75.4 °F /  24.1 °C 60.7 °F /  15.9 °C 29.74in /  1007hPa Calm     60.3% 0.00in /  0mm 0 W/m2
19:19 75.2 °F /  24 °C 60.9 °F /  16.1 °C 29.74in /  1007hPa Calm     61.1% 0.00in /  0mm 0 W/m2
19:24 74.9 °F /  23.8 °C 61.1 °F /  16.2 °C 29.74in /  1007hPa Calm     62.2% 0.00in /  0mm 0 W/m2
19:29 74.6 °F /  23.7 °C 61.4 °F /  16.3 °C 29.75in /  1007.3hPa Calm     63.5% 0.00in /  0mm 0 W/m2
19:34 74.3 °F /  23.5 °C 61.4 °F /  16.3 °C 29.75in /  1007.3hPa Calm     64.3% 0.00in /  0mm 0 W/m2
19:39 73.9 °F /  23.3 °C 61.7 °F /  16.5 °C 29.75in /  1007.3hPa Calm     65.6% 0.00in /  0mm 0 W/m2
19:44 73.5 °F /  23.1 °C 61.3 °F /  16.3 °C 29.75in /  1007.3hPa Calm     65.5% 0.00in /  0mm 0 W/m2
19:49 73.2 °F /  22.9 °C 61.1 °F /  16.2 °C 29.76in /  1007.7hPa WNW 0.1mph /  0.2km/h 3mph /  4.8km/h 66% 0.00in /  0mm 0 W/m2
19:54 72.8 °F /  22.7 °C 60.8 °F /  16 °C 29.76in /  1007.7hPa Calm   3mph /  4.8km/h 66% 0.00in /  0mm 0 W/m2
19:59 72.4 °F /  22.4 °C 60.9 °F /  16.1 °C 29.76in /  1007.7hPa Calm   3mph /  4.8km/h 67.3% 0.00in /  0mm 0 W/m2
20:00 72.2 °F /  22.3 °C 61.5 °F /  16.4 °C 29.76in /  1007.7hPa Calm   3mph /  4.8km/h 69% 0.00in /  0mm 0 W/m2
20:09 71.6 °F /  22 °C 61 °F /  16.1 °C 29.77in /  1008hPa Calm     69.3% 0.00in /  0mm 0 W/m2
20:14 71.2 °F /  21.8 °C 60.7 °F /  15.9 °C 29.77in /  1008hPa Calm     69.3% 0.00in /  0mm 0 W/m2
20:19 71 °F /  21.7 °C 60.4 °F /  15.8 °C 29.77in /  1008hPa Calm     69.2% 0.00in /  0mm 0 W/m2
20:24 70.7 °F /  21.5 °C 60.3 °F /  15.7 °C 29.77in /  1008hPa Calm     69.6% 0.00in /  0mm 0 W/m2
20:29 70.5 °F /  21.4 °C 60.3 °F /  15.7 °C 29.78in /  1008.4hPa Calm     70% 0.00in /  0mm 0 W/m2
20:34 70.3 °F /  21.3 °C 60 °F /  15.6 °C 29.78in /  1008.4hPa Calm     70% 0.00in /  0mm 0 W/m2
20:39 70 °F /  21.1 °C 60 °F /  15.6 °C 29.78in /  1008.4hPa Calm     70.6% 0.00in /  0mm 0 W/m2
20:44 69.8 °F /  21 °C 60.3 °F /  15.7 °C 29.79in /  1008.7hPa Calm     71.8% 0.00in /  0mm 0 W/m2
20:49 69.5 °F /  20.8 °C 60.4 °F /  15.8 °C 29.79in /  1008.7hPa Calm   1mph /  1.6km/h 73% 0.00in /  0mm 0 W/m2
20:54 69.1 °F /  20.6 °C 60.1 °F /  15.6 °C 29.79in /  1008.7hPa Calm   1mph /  1.6km/h 73% 0.00in /  0mm 0 W/m2
20:59 68.8 °F /  20.4 °C 59.8 °F /  15.4 °C 29.80in /  1009hPa Calm   1mph /  1.6km/h 73% 0.00in /  0mm 0 W/m2
21:04 68.6 °F /  20.3 °C 59.6 °F /  15.3 °C 29.80in /  1009hPa Calm   1mph /  1.6km/h 73% 0.00in /  0mm 0 W/m2
21:09 68.4 °F /  20.2 °C 59.4 °F /  15.2 °C 29.80in /  1009hPa Calm     73% 0.00in /  0mm 0 W/m2
21:14 68.2 °F /  20.1 °C 59.2 °F /  15.1 °C 29.81in /  1009.4hPa Calm     73% 0.00in /  0mm 0 W/m2
21:19 68.1 °F /  20.1 °C 59.1 °F /  15.1 °C 29.81in /  1009.4hPa Calm     73% 0.00in /  0mm 0 W/m2
21:24 67.9 °F /  19.9 °C 59.3 °F /  15.2 °C 29.81in /  1009.4hPa Calm     74% 0.00in /  0mm 0 W/m2
21:29 67.8 °F /  19.9 °C 59.2 °F /  15.1 °C 29.81in /  1009.4hPa Calm     74% 0.00in /  0mm 0 W/m2
21:34 67.6 °F /  19.8 °C 59.1 °F /  15.1 °C 29.81in /  1009.4hPa Calm     74% 0.00in /  0mm 0 W/m2
21:39 67.5 °F /  19.7 °C 58.9 °F /  14.9 °C 29.81in /  1009.4hPa Calm     74% 0.00in /  0mm 0 W/m2
21:44 67.3 °F /  19.6 °C 59.1 °F /  15.1 °C 29.81in /  1009.4hPa Calm     74.9% 0.00in /  0mm 0 W/m2
21:49 67.1 °F /  19.5 °C 59 °F /  15 °C 29.81in /  1009.4hPa Calm     75.1% 0.00in /  0mm 0 W/m2
21:54 66.9 °F /  19.4 °C 58.8 °F /  14.9 °C 29.82in /  1009.7hPa Calm     75% 0.00in /  0mm 0 W/m2
21:59 66.7 °F /  19.3 °C 58.7 °F /  14.8 °C 29.82in /  1009.7hPa Calm     75.3% 0.00in /  0mm 0 W/m2
22:04 66.6 °F /  19.2 °C 58.8 °F /  14.9 °C 29.82in /  1009.7hPa Calm     76% 0.00in /  0mm 0 W/m2
22:09 66.4 °F /  19.1 °C 58.6 °F /  14.8 °C 29.82in /  1009.7hPa Calm     76% 0.00in /  0mm 0 W/m2
22:14 66.2 °F /  19 °C 58.6 °F /  14.8 °C 29.82in /  1009.7hPa Calm     76.6% 0.00in /  0mm 0 W/m2
22:19 66 °F /  18.9 °C 58.8 °F /  14.9 °C 29.82in /  1009.7hPa Calm     77.6% 0.00in /  0mm 0 W/m2
22:24 65.8 °F /  18.8 °C 58.8 °F /  14.9 °C 29.83in /  1010hPa Calm     78% 0.00in /  0mm 0 W/m2
22:29 65.7 °F /  18.7 °C 58.8 °F /  14.9 °C 29.83in /  1010hPa Calm     78.5% 0.00in /  0mm 0 W/m2
22:34 65.5 °F /  18.6 °C 58.8 °F /  14.9 °C 29.83in /  1010hPa Calm     79% 0.00in /  0mm 0 W/m2
22:39 65.3 °F /  18.5 °C 58.8 °F /  14.9 °C 29.83in /  1010hPa Calm     79.6% 0.00in /  0mm 0 W/m2
22:44 65.1 °F /  18.4 °C 58.7 °F /  14.8 °C 29.84in /  1010.4hPa Calm     80% 0.00in /  0mm 0 W/m2
22:49 64.9 °F /  18.3 °C 58.6 °F /  14.8 °C 29.84in /  1010.4hPa Calm     80% 0.00in /  0mm 0 W/m2
22:54 64.7 °F /  18.2 °C 58.4 °F /  14.7 °C 29.84in /  1010.4hPa Calm     80% 0.00in /  0mm 0 W/m2
22:59 64.6 °F /  18.1 °C 58.4 °F /  14.7 °C 29.84in /  1010.4hPa Calm     80.5% 0.00in /  0mm 0 W/m2
23:04 64.4 °F /  18 °C 58.4 °F /  14.7 °C 29.84in /  1010.4hPa Calm     80.8% 0.00in /  0mm 0 W/m2
23:09 64.3 °F /  17.9 °C 58.3 °F /  14.6 °C 29.84in /  1010.4hPa Calm     81% 0.00in /  0mm 0 W/m2
23:14 64.2 °F /  17.9 °C 58.3 °F /  14.6 °C 29.84in /  1010.4hPa Calm     81% 0.00in /  0mm 0 W/m2
23:19 64.1 °F /  17.8 °C 58.2 °F /  14.6 °C 29.84in /  1010.4hPa Calm     81% 0.00in /  0mm 0 W/m2
23:24 64.1 °F /  17.8 °C 58.2 °F /  14.6 °C 29.84in /  1010.4hPa Calm     81% 0.00in /  0mm 0 W/m2
23:29 64 °F /  17.8 °C 58.1 °F /  14.5 °C 29.84in /  1010.4hPa Calm     81% 0.00in /  0mm 0 W/m2
23:34 63.9 °F /  17.7 °C 58 °F /  14.4 °C 29.85in /  1010.7hPa Calm     81% 0.00in /  0mm 0 W/m2
23:39 63.8 °F /  17.7 °C 57.9 °F /  14.4 °C 29.85in /  1010.7hPa Calm     81% 0.00in /  0mm 0 W/m2
23:44 63.6 °F /  17.6 °C 57.9 °F /  14.4 °C 29.85in /  1010.7hPa Calm     81.5% 0.00in /  0mm 0 W/m2
23:49 63.5 °F /  17.5 °C 57.9 °F /  14.4 °C 29.85in /  1010.7hPa Calm   2mph /  3.2km/h 82% 0.00in /  0mm 0 W/m2
23:54 63.4 °F /  17.4 °C 57.8 °F /  14.3 °C 29.85in /  1010.7hPa Calm   2mph /  3.2km/h 82% 0.00in /  0mm 0 W/m2
23:59 63.3 °F /  17.4 °C 57.7 °F /  14.3 °C 29.85in /  1010.7hPa WNW 0.1mph /  0.2km/h 2mph /  3.2km/h 82% 0.00in /  0mm 0 W/m2
Hartford County Weather
Compliments of Weather Underground - 2 mb